Time;durP1;ratioP1;P1;durP2;ratioP2;P2;SDS_P1;SDS_P2;PMS_P1;PMS_P2;Temp;Humidity;BMP_temperature;BMP_pressure;BME280_temperature;BME280_humidity;BME280_pressure;Samples;Min_cycle;Max_cycle;Signal;HPM_P1;HPM_P2
2021/01/12 00:02:28;;;;;;;45.60;15.63;;;;;;;-1.41;79.98;100026.05;120049;1148;22958;-61
2021/01/12 00:04:58;;;;;;;44.70;14.77;;;;;;;-1.40;79.91;100019.38;120155;1148;28088;-60
2021/01/12 00:07:28;;;;;;;49.27;17.17;;;;;;;-1.37;80.36;100032.27;119948;1148;25686;-62
2021/01/12 00:09:58;;;;;;;37.23;13.60;;;;;;;-1.36;79.95;100026.39;120278;1147;25638;-61
2021/01/12 00:12:28;;;;;;;44.33;15.45;;;;;;;-1.34;80.53;100017.76;120070;1148;26641;-61
2021/01/12 00:14:58;;;;;;;39.25;14.53;;;;;;;-1.33;80.53;100024.80;120483;1148;22918;-62
2021/01/12 00:17:29;;;;;;;39.78;13.18;;;;;;;-1.33;79.62;100031.07;120330;1148;23014;-61
2021/01/12 00:19:59;;;;;;;38.70;13.05;;;;;;;-1.31;79.43;100030.66;120076;1148;27306;-61
2021/01/12 00:22:29;;;;;;;32.67;11.50;;;;;;;-1.30;80.23;100024.77;120236;1148;22889;-63
2021/01/12 00:25:00;;;;;;;34.93;10.80;;;;;;;-1.26;79.41;100027.50;120009;1148;27263;-62
2021/01/12 00:27:30;;;;;;;32.67;11.28;;;;;;;-1.26;80.02;100025.52;119995;1148;24595;-61
2021/01/12 00:30:00;;;;;;;33.25;11.75;;;;;;;-1.25;79.43;100021.61;120144;1148;22961;-60
2021/01/12 00:32:30;;;;;;;33.13;10.50;;;;;;;-1.22;79.44;100012.56;120095;1148;22919;-62
2021/01/12 00:35:00;;;;;;;33.53;10.10;;;;;;;-1.20;78.96;99988.29;120096;1147;22936;-60
2021/01/12 00:37:31;;;;;;;30.77;9.50;;;;;;;-1.18;79.49;99980.44;120017;1148;22947;-62
2021/01/12 00:40:01;;;;;;;31.77;9.20;;;;;;;-1.16;79.24;99980.05;119987;1148;26184;-63
2021/01/12 00:42:32;;;;;;;28.27;8.85;;;;;;;-1.16;79.53;99967.11;120122;1148;22936;-62
2021/01/12 00:45:01;;;;;;;;;;;;;;;-1.13;79.15;99971.01;120451;1148;23026;-63
2021/01/12 00:47:32;;;;;;;30.03;9.13;;;;;;;-1.14;78.94;99975.70;120000;1148;24220;-61
2021/01/12 00:50:04;;;;;;;25.23;9.10;;;;;;;-1.12;78.94;99976.08;120045;1148;22957;-60
2021/01/12 00:52:34;;;;;;;32.93;9.67;;;;;;;-1.11;78.61;99972.16;120137;1148;24604;-63
2021/01/12 00:55:06;;;;;;;25.93;8.00;;;;;;;-1.10;78.55;99984.69;120030;1148;22931;-62
2021/01/12 00:57:40;;;;;;;31.47;8.83;;;;;;;-1.10;78.89;99978.43;120401;1148;22955;-63
2021/01/12 01:00:12;;;;;;;25.70;8.20;;;;;;;-1.09;78.65;99988.97;120094;1148;22967;-61
2021/01/12 01:02:42;;;;;;;29.60;7.57;;;;;;;-1.09;78.48;99985.45;120130;1148;22946;-61
2021/01/12 01:05:13;;;;;;;24.37;7.95;;;;;;;-1.11;78.29;99987.81;119927;1148;24768;-62
2021/01/12 01:07:48;;;;;;;26.07;8.97;;;;;;;-1.10;78.28;99978.43;120096;1148;23037;-62
2021/01/12 01:10:18;;;;;;;23.80;8.00;;;;;;;-1.12;77.95;99969.84;120031;1148;22910;-60
2021/01/12 01:12:48;;;;;;;22.35;6.37;;;;;;;-1.13;77.77;99971.80;120581;1148;22940;-62
2021/01/12 01:15:20;;;;;;;30.63;8.70;;;;;;;-1.14;77.89;99963.99;120152;1151;22923;-62
2021/01/12 01:17:50;;;;;;;24.93;7.50;;;;;;;-1.13;77.80;99960.05;120576;1148;26037;-62
2021/01/12 01:20:19;;;;;;;22.63;7.20;;;;;;;-1.15;77.91;99951.47;120161;1148;22941;-63
2021/01/12 01:22:49;;;;;;;24.02;7.05;;;;;;;-1.14;78.23;99951.05;120039;1148;28413;-62
2021/01/12 01:25:19;;;;;;;24.32;7.72;;;;;;;-1.13;78.15;99958.09;120043;1148;27379;-61
2021/01/12 01:27:49;;;;;;;28.85;7.92;;;;;;;-1.12;77.67;99947.92;120009;1148;23090;-61
2021/01/12 01:30:21;;;;;;;17.42;4.15;;;;;;;-1.11;76.92;99944.77;120024;1148;22966;-62
2021/01/12 01:32:51;;;;;;;25.47;6.33;;;;;;;-1.10;77.30;99940.86;120074;1148;23021;-59
2021/01/12 01:35:22;;;;;;;25.92;7.10;;;;;;;-1.10;77.22;99934.59;120031;1148;23361;-61
2021/01/12 01:37:54;;;;;;;24.27;6.57;;;;;;;-1.09;77.15;99930.66;120410;1148;22941;-60
2021/01/12 01:40:24;;;;;;;25.00;7.07;;;;;;;-1.09;77.73;99925.97;120002;1148;23405;-61
2021/01/12 01:42:53;;;;;;;;;;;;;;;-1.08;77.28;99924.80;120228;1148;23004;-62
2021/01/12 01:45:24;;;;;;;21.00;6.53;;;;;;;-1.08;77.72;99916.58;120008;1148;22987;-61
2021/01/12 01:47:55;;;;;;;20.87;5.63;;;;;;;-1.09;78.11;99923.23;120085;1148;23167;-60
2021/01/12 01:50:25;;;;;;;21.67;6.30;;;;;;;-1.08;77.56;99913.05;120456;1148;22839;-62
2021/01/12 01:52:57;;;;;;;24.92;6.45;;;;;;;-1.09;77.36;99901.31;120168;1148;26431;-62
2021/01/12 01:55:28;;;;;;;19.00;5.37;;;;;;;-1.07;77.50;99898.16;119987;1148;22944;-62
2021/01/12 01:57:58;;;;;;;24.77;7.03;;;;;;;-1.06;77.59;99897.77;120143;1148;27472;-60
2021/01/12 02:00:28;;;;;;;16.37;5.00;;;;;;;-1.08;77.08;99894.66;119987;1148;23054;-62
2021/01/12 02:03:06;;;;;;;24.95;6.50;;;;;;;-1.08;77.28;99894.66;120195;1148;23013;-62
2021/01/12 02:05:41;;;;;;;21.40;5.93;;;;;;;-1.07;77.26;99889.94;120067;1148;24729;-61
2021/01/12 02:08:16;;;;;;;25.43;6.93;;;;;;;-1.06;77.42;99895.03;120236;1148;22945;-63
2021/01/12 02:10:49;;;;;;;24.23;6.03;;;;;;;-1.04;77.55;99894.61;120094;1148;23019;-62
2021/01/12 02:13:23;;;;;;;20.20;5.33;;;;;;;-1.05;77.44;99890.30;120072;1148;22932;-61
2021/01/12 02:15:58;;;;;;;21.07;5.80;;;;;;;-1.04;76.53;99886.39;120141;1148;22937;-61
2021/01/12 02:18:34;;;;;;;22.00;6.67;;;;;;;-1.03;77.60;99885.19;120092;1148;23109;-61
2021/01/12 02:21:07;;;;;;;20.00;6.47;;;;;;;-1.04;77.22;99880.91;120126;1148;26050;-61
2021/01/12 02:23:46;;;;;;;22.83;5.80;;;;;;;-1.04;77.45;99876.22;120047;1148;28722;-61
2021/01/12 02:26:16;;;;;;;21.47;5.90;;;;;;;-1.04;77.28;99872.70;119986;1148;24583;-60
2021/01/12 02:28:46;;;;;;;24.10;7.30;;;;;;;-1.03;77.17;99875.02;120067;1148;22944;-61
2021/01/12 02:31:16;;;;;;;22.50;7.03;;;;;;;-1.03;77.64;99868.75;119983;1148;22951;-60
2021/01/12 02:33:49;;;;;;;25.65;7.62;;;;;;;-1.04;77.63;99862.52;120078;1148;27229;-59
2021/01/12 02:36:23;;;;;;;23.15;6.40;;;;;;;-1.03;77.38;99863.27;120091;1148;22992;-62
2021/01/12 02:38:53;;;;;;;23.60;6.40;;;;;;;-1.03;77.08;99858.58;120066;1148;23090;-61
2021/01/12 02:41:30;;;;;;;20.80;6.40;;;;;;;-1.03;76.89;99855.05;120244;1148;23090;-62
2021/01/12 02:44:02;;;;;;;23.07;6.47;;;;;;;-1.04;77.07;99846.08;120222;1148;22923;-61
2021/01/12 02:46:32;;;;;;;22.77;6.57;;;;;;;-1.05;76.32;99847.25;120172;1148;23367;-59
2021/01/12 02:49:02;;;;;;;22.85;6.50;;;;;;;-1.06;76.56;99834.76;120192;1148;23255;-62
2021/01/12 02:51:37;;;;;;;21.25;6.35;;;;;;;-1.05;77.55;99835.52;120090;1148;22951;-61
2021/01/12 02:54:08;;;;;;;24.85;6.20;;;;;;;-1.07;76.27;99829.67;120072;1148;22975;-63
2021/01/12 02:56:36;;;;;;;;;;;;;;;-1.08;76.70;99819.91;120285;1150;24708;-61
2021/01/12 02:59:06;;;;;;;22.25;6.70;;;;;;;-1.10;76.51;99814.86;119962;1148;21927;-61
2021/01/12 03:01:36;;;;;;;21.77;6.33;;;;;;;-1.10;77.23;99814.07;119973;1150;22955;-62
2021/01/12 03:04:06;;;;;;;22.10;6.60;;;;;;;-1.12;76.85;99806.24;119985;1148;22998;-61
2021/01/12 03:06:36;;;;;;;20.08;5.05;;;;;;;-1.14;76.55;99794.92;120034;1150;22969;-61
2021/01/12 03:09:06;;;;;;;;;;;;;;;-1.14;76.41;99792.18;120072;1148;23090;-61
2021/01/12 03:11:37;;;;;;;21.87;5.30;;;;;;;-1.16;76.36;99786.34;120172;1148;23217;-61
2021/01/12 03:14:07;;;;;;;19.27;5.00;;;;;;;-1.16;76.28;99780.86;120028;1148;22981;-61
2021/01/12 03:16:37;;;;;;;23.60;5.70;;;;;;;-1.16;77.03;99778.13;120013;1148;22948;-61
2021/01/12 03:19:07;;;;;;;19.85;7.12;;;;;;;-1.15;76.68;99776.17;120005;1150;22962;-62
2021/01/12 03:21:37;;;;;;;22.27;6.20;;;;;;;-1.13;76.55;99779.27;120028;1148;22935;-62
2021/01/12 03:24:08;;;;;;;25.20;6.70;;;;;;;-1.12;77.43;99767.14;119998;1148;22910;-62
2021/01/12 03:26:38;;;;;;;23.57;6.23;;;;;;;-1.13;76.40;99763.62;120177;1148;27387;-62
2021/01/12 03:29:08;;;;;;;20.27;5.97;;;;;;;-1.14;77.00;99767.53;120032;1148;22982;-62
2021/01/12 03:31:38;;;;;;;21.90;6.15;;;;;;;-1.15;76.83;99759.73;119994;1148;24563;-62
2021/01/12 03:34:08;;;;;;;;;;;;;;;-1.16;76.40;99752.72;120079;1150;22920;-62
2021/01/12 03:36:37;;;;;;;23.35;5.70;;;;;;;-1.17;77.29;99748.41;119962;1148;24224;-62
2021/01/12 03:39:08;;;;;;;18.62;5.45;;;;;;;-1.18;76.49;99755.84;119967;1148;23054;-62
2021/01/12 03:41:38;;;;;;;20.87;5.30;;;;;;;-1.17;76.87;99745.67;120076;1148;22979;-63
2021/01/12 03:44:08;;;;;;;18.47;6.03;;;;;;;-1.17;76.84;99735.50;120053;1148;26479;-61
2021/01/12 03:46:38;;;;;;;18.75;5.30;;;;;;;-1.15;77.13;99744.08;119983;1150;22972;-63
2021/01/12 03:49:08;;;;;;;20.83;5.07;;;;;;;-1.15;77.12;99735.08;120059;1148;22938;-63
2021/01/12 03:51:39;;;;;;;20.30;5.27;;;;;;;-1.14;76.97;99731.17;120225;1148;24732;-62
2021/01/12 03:54:10;;;;;;;18.32;4.92;;;;;;;-1.13;77.00;99733.48;120021;1148;23412;-62
2021/01/12 03:56:40;;;;;;;23.73;6.67;;;;;;;-1.14;76.71;99731.17;120083;1148;22975;-62
2021/01/12 03:59:10;;;;;;;23.87;7.37;;;;;;;-1.13;77.15;99729.97;120122;1148;22959;-63
2021/01/12 04:01:43;;;;;;;19.52;5.33;;;;;;;-1.13;77.39;99722.53;120099;1148;23034;-62
2021/01/12 04:04:13;;;;;;;22.95;5.60;;;;;;;-1.12;77.12;99718.59;120007;1148;22962;-61
2021/01/12 04:06:44;;;;;;;23.50;5.87;;;;;;;-1.12;77.26;99712.36;120040;1148;22976;-61
2021/01/12 04:09:15;;;;;;;26.05;6.15;;;;;;;-1.11;77.15;99709.20;120119;1148;22928;-62
2021/01/12 04:11:45;;;;;;;23.27;5.60;;;;;;;-1.10;77.12;99704.50;120021;1148;27263;-61
2021/01/12 04:14:16;;;;;;;27.30;5.55;;;;;;;-1.10;76.69;99704.50;120058;1148;23016;-60
2021/01/12 04:16:46;;;;;;;25.23;6.77;;;;;;;-1.10;76.94;99699.02;120001;1148;22951;-61
2021/01/12 04:19:17;;;;;;;27.20;7.42;;;;;;;-1.10;76.65;99699.02;120038;1150;23686;-63
2021/01/12 04:21:46;;;;;;;25.77;6.33;;;;;;;-1.11;76.67;99698.24;119996;1148;23055;-62
2021/01/12 04:24:17;;;;;;;27.10;6.47;;;;;;;-1.09;76.90;99704.08;120085;1148;22961;-61
2021/01/12 04:26:47;;;;;;;21.27;5.70;;;;;;;-1.07;77.60;99698.96;120176;1148;23015;-63
2021/01/12 04:29:17;;;;;;;22.77;5.30;;;;;;;-1.06;77.74;99686.05;120045;1148;23014;-62
2021/01/12 04:31:48;;;;;;;22.60;6.40;;;;;;;-1.07;77.40;99682.53;120232;1148;23163;-61
2021/01/12 04:34:19;;;;;;;19.45;6.15;;;;;;;-1.08;77.50;99678.25;120310;1148;22958;-61
2021/01/12 04:36:50;;;;;;;21.70;6.80;;;;;;;-1.07;77.34;99677.05;120164;1148;23060;-61
2021/01/12 04:39:19;;;;;;;22.95;7.08;;;;;;;-1.06;77.60;99680.57;120010;1148;23007;-60
2021/01/12 04:41:50;;;;;;;20.88;6.22;;;;;;;-1.08;76.82;99675.52;120039;1148;22962;-61
2021/01/12 04:44:20;;;;;;;23.10;6.72;;;;;;;-1.08;77.29;99666.52;120031;1148;27222;-60
2021/01/12 04:46:50;;;;;;;25.57;7.33;;;;;;;-1.09;77.26;99665.73;120064;1148;27343;-60
2021/01/12 04:49:21;;;;;;;23.20;7.30;;;;;;;-1.08;77.50;99658.30;120008;1148;27103;-62
2021/01/12 04:51:51;;;;;;;23.43;6.67;;;;;;;-1.09;76.59;99662.21;120057;1148;27353;-62
2021/01/12 04:54:25;;;;;;;22.25;6.45;;;;;;;-1.10;76.18;99655.98;120126;1148;22995;-62
2021/01/12 04:56:57;;;;;;;23.03;6.83;;;;;;;-1.11;76.63;99654.41;120056;1148;22936;-62
2021/01/12 04:59:31;;;;;;;23.17;6.70;;;;;;;-1.10;76.40;99653.24;120026;1148;27839;-63
2021/01/12 05:02:02;;;;;;;20.80;5.80;;;;;;;-1.09;76.42;99652.03;120078;1148;23051;-62
2021/01/12 05:04:34;;;;;;;22.30;6.40;;;;;;;-1.09;76.88;99646.55;120089;1148;22926;-63
2021/01/12 05:07:10;;;;;;;19.23;6.27;;;;;;;-1.09;76.26;99641.08;120045;1148;22982;-61
2021/01/12 05:09:42;;;;;;;17.50;5.07;;;;;;;-1.08;76.12;99633.64;120007;1148;22926;-61
2021/01/12 05:12:14;;;;;;;21.03;6.00;;;;;;;-1.10;76.55;99634.06;120040;1148;24257;-62
2021/01/12 05:14:47;;;;;;;21.40;7.03;;;;;;;-1.10;76.42;99636.02;120041;1148;26897;-61
2021/01/12 05:17:21;;;;;;;20.40;6.17;;;;;;;-1.10;76.86;99625.06;120165;1148;22937;-62
2021/01/12 05:19:57;;;;;;;21.83;6.93;;;;;;;-1.12;76.59;99617.24;120151;1148;24605;-62
2021/01/12 05:22:30;;;;;;;23.97;6.97;;;;;;;-1.14;76.46;99594.22;120377;1148;22933;-61
2021/01/12 05:27:45;;;;;;;19.40;6.00;;;;;;;-1.17;76.63;99590.34;120051;1148;23049;-60
2021/01/12 05:30:22;;;;;;;26.00;7.20;;;;;;;-1.16;76.87;99593.86;120143;1148;25970;-60
2021/01/12 05:32:53;;;;;;;24.95;6.20;;;;;;;-1.17;76.02;99578.61;120106;1148;23017;-62
2021/01/12 05:35:26;;;;;;;19.23;5.97;;;;;;;-1.19;76.22;99572.77;120310;1148;22916;-62
2021/01/12 05:38:02;;;;;;;18.90;5.73;;;;;;;-1.22;76.66;99568.14;120006;1148;23087;-62
2021/01/12 05:40:34;;;;;;;21.27;6.27;;;;;;;-1.24;76.33;99559.56;120131;1148;22930;-62
2021/01/12 05:43:09;;;;;;;23.33;6.20;;;;;;;-1.25;76.70;99564.27;120206;1148;23087;-63
2021/01/12 05:45:41;;;;;;;21.93;6.40;;;;;;;-1.25;76.60;99555.27;120145;1148;22930;-63
2021/01/12 05:48:12;;;;;;;23.77;6.33;;;;;;;-1.26;76.02;99548.26;120036;1148;22936;-62
2021/01/12 05:50:42;;;;;;;24.30;7.87;;;;;;;-1.26;75.97;99540.80;120122;1148;22923;-62
2021/01/12 05:53:16;;;;;;;29.93;8.23;;;;;;;-1.25;76.37;99530.63;120169;1148;22921;-62
2021/01/12 05:55:53;;;;;;;23.40;7.50;;;;;;;-1.25;77.03;99528.66;120063;1148;22878;-68
2021/01/12 05:58:32;;;;;;;27.27;7.27;;;;;;;-1.25;76.64;99520.45;120174;1148;23106;-65
2021/01/12 06:01:04;;;;;;;20.87;6.20;;;;;;;-1.27;76.56;99522.83;120125;1148;22876;-64
2021/01/12 06:03:35;;;;;;;26.37;6.27;;;;;;;-1.24;75.82;99523.97;120232;1148;22923;-66
2021/01/12 06:06:06;;;;;;;21.70;6.00;;;;;;;-1.24;75.99;99511.03;119944;1148;22948;-65
2021/01/12 06:08:37;;;;;;;19.45;5.40;;;;;;;-1.22;76.23;99521.59;120092;1148;22954;-66
2021/01/12 06:11:10;;;;;;;18.10;4.67;;;;;;;-1.22;75.76;99518.84;120086;1148;24716;-65
2021/01/12 06:13:53;;;;;;;20.40;5.67;;;;;;;-1.23;76.42;99528.23;120058;1148;23087;-65
2021/01/12 06:16:24;;;;;;;22.20;5.50;;;;;;;-1.22;76.49;99527.06;120115;1148;22923;-60
2021/01/12 06:19:09;;;;;;;19.57;5.00;;;;;;;-1.21;75.81;99512.95;120144;1148;22923;-62
2021/01/12 06:22:14;;;;;;;21.80;6.00;;;;;;;-1.20;75.96;99513.73;120256;1148;22964;-61
2021/01/12 06:25:03;;;;;;;24.55;7.30;;;;;;;-1.18;75.89;99514.83;120135;1148;26678;-61
2021/01/12 06:27:35;;;;;;;23.87;6.93;;;;;;;-1.17;76.43;99516.40;120342;1148;23373;-62
2021/01/12 06:30:08;;;;;;;18.40;5.27;;;;;;;-1.15;76.17;99511.27;120010;1148;26111;-61
2021/01/12 06:32:38;;;;;;;20.57;5.67;;;;;;;-1.11;76.50;99524.90;120095;1148;25976;-62
2021/01/12 06:35:11;;;;;;;19.65;5.87;;;;;;;-1.10;75.88;99527.24;120181;1148;22925;-62
2021/01/12 06:37:44;;;;;;;24.67;6.73;;;;;;;-1.06;75.93;99525.22;120117;1148;25585;-60
2021/01/12 06:40:15;;;;;;;22.70;6.20;;;;;;;-1.04;75.93;99522.83;120088;1148;23231;-63
2021/01/12 06:42:46;;;;;;;23.53;5.50;;;;;;;-0.99;75.79;99518.81;120131;1148;22958;-62
2021/01/12 06:45:18;;;;;;;22.83;5.67;;;;;;;-0.96;75.78;99513.29;119986;1148;22919;-62
2021/01/12 06:47:48;;;;;;;21.73;5.90;;;;;;;-0.92;75.78;99513.22;120079;1148;22961;-61
2021/01/12 06:50:19;;;;;;;20.35;5.45;;;;;;;-0.90;76.28;99499.87;120056;1148;23015;-62
2021/01/12 06:52:51;;;;;;;19.93;5.60;;;;;;;-0.88;75.54;99509.22;120109;1148;22972;-63
2021/01/12 06:55:22;;;;;;;18.00;4.60;;;;;;;-0.84;75.95;99507.19;120105;1148;22919;-61
2021/01/12 06:57:59;;;;;;;21.97;5.60;;;;;;;-0.81;75.49;99506.33;119981;1150;23021;-60
2021/01/12 07:00:32;;;;;;;21.20;5.80;;;;;;;-0.78;75.29;99499.24;120217;1148;24741;-60
2021/01/12 07:03:02;;;;;;;19.87;4.97;;;;;;;-0.74;75.44;99493.69;120153;1148;26394;-60
2021/01/12 07:05:39;;;;;;;23.75;5.65;;;;;;;-0.71;75.54;99488.16;120025;1148;27723;-61
2021/01/12 07:08:11;;;;;;;19.43;5.67;;;;;;;-0.68;75.89;99481.82;120059;1148;24487;-63
2021/01/12 07:10:44;;;;;;;23.77;6.10;;;;;;;-0.66;75.61;99484.16;120018;1148;22952;-62
2021/01/12 07:13:14;;;;;;;20.80;5.90;;;;;;;-0.63;75.81;99481.34;120148;1148;23166;-60
2021/01/12 07:15:46;;;;;;;19.80;6.28;;;;;;;-0.60;75.52;99475.00;120214;1148;23080;-61
2021/01/12 07:18:22;;;;;;;19.83;5.57;;;;;;;-0.59;75.91;99473.03;120097;1148;22922;-60
2021/01/12 07:20:52;;;;;;;20.85;5.85;;;;;;;-0.57;76.09;99468.69;119987;1150;22975;-61
2021/01/12 07:23:23;;;;;;;19.20;5.63;;;;;;;-0.54;75.82;99464.33;120005;1150;23002;-61
2021/01/12 07:25:54;;;;;;;16.50;4.07;;;;;;;-0.48;75.22;99465.38;120068;1148;22923;-61
2021/01/12 07:28:24;;;;;;;15.90;4.10;;;;;;;-0.45;75.52;99459.81;119958;1148;22892;-61
2021/01/12 07:30:56;;;;;;;;;;;;;;;-0.40;74.80;99451.09;120149;1148;27611;-61
2021/01/12 07:33:30;;;;;;;19.13;4.23;;;;;;;-0.36;75.03;99457.28;119942;1150;21708;-62
2021/01/12 07:36:00;;;;;;;15.97;3.77;;;;;;;-0.32;74.60;99454.45;120315;1148;24584;-62
2021/01/12 07:38:32;;;;;;;15.73;3.70;;;;;;;-0.30;75.48;99444.61;120131;1148;25954;-59
2021/01/12 07:41:04;;;;;;;16.97;4.07;;;;;;;-0.26;74.85;99447.27;119952;1148;23001;-62
2021/01/12 07:43:34;;;;;;;18.60;4.15;;;;;;;-0.23;75.45;99444.44;120022;1148;22923;-61
2021/01/12 07:46:05;;;;;;;18.12;3.80;;;;;;;-0.20;75.10;99437.33;120342;1148;22934;-62
2021/01/12 07:48:36;;;;;;;17.07;3.53;;;;;;;-0.18;74.55;99432.97;120255;1148;22934;-62
2021/01/12 07:51:06;;;;;;;17.35;4.00;;;;;;;-0.14;74.47;99435.63;120100;1148;23054;-61
2021/01/12 07:53:37;;;;;;;17.30;4.20;;;;;;;-0.11;75.27;99435.56;120129;1148;23028;-62
2021/01/12 07:56:07;;;;;;;17.00;4.40;;;;;;;-0.07;75.13;99430.77;120289;1148;22923;-64
2021/01/12 07:58:38;;;;;;;15.40;3.97;;;;;;;-0.06;75.50;99432.30;119996;1148;22947;-63
2021/01/12 08:01:08;;;;;;;17.75;3.80;;;;;;;-0.03;75.06;99420.48;120072;1148;25026;-62
2021/01/12 08:03:41;;;;;;;20.52;5.37;;;;;;;0.00;75.58;99425.09;119991;1148;23052;-62
2021/01/12 08:06:13;;;;;;;16.53;4.33;;;;;;;0.04;75.01;99427.00;120143;1148;22948;-63
2021/01/12 08:08:43;;;;;;;16.70;4.23;;;;;;;0.07;75.75;99426.91;120372;1148;23032;-62
2021/01/12 08:11:15;;;;;;;19.27;3.98;;;;;;;0.11;75.44;99410.35;120103;1148;27503;-60
2021/01/12 08:13:46;;;;;;;13.60;3.27;;;;;;;0.14;74.94;99421.27;119981;1148;22999;-61
2021/01/12 08:16:17;;;;;;;15.93;3.62;;;;;;;0.18;75.39;99407.45;120079;1148;22913;-61
2021/01/12 08:18:50;;;;;;;17.70;3.70;;;;;;;0.22;74.96;99406.17;119923;1150;22964;-61
2021/01/12 08:21:20;;;;;;;15.37;3.77;;;;;;;0.26;75.50;99406.07;119931;1148;22941;-61
2021/01/12 08:23:59;;;;;;;16.85;4.42;;;;;;;0.28;75.70;99398.95;120014;1150;26559;-61
2021/01/12 08:26:30;;;;;;;17.20;4.15;;;;;;;0.30;75.83;99401.27;120013;1148;23291;-63
2021/01/12 08:29:00;;;;;;;15.30;3.37;;;;;;;0.32;75.36;99399.64;119968;1148;24694;-62
2021/01/12 08:31:34;;;;;;;17.62;4.47;;;;;;;0.36;75.56;99394.05;119942;1148;26155;-63
2021/01/12 08:34:06;;;;;;;17.10;4.23;;;;;;;0.38;75.12;99386.16;119966;1148;24599;-63
2021/01/12 08:36:38;;;;;;;17.07;4.03;;;;;;;0.41;74.76;99388.05;120136;1147;22923;-60
2021/01/12 08:39:11;;;;;;;19.60;4.90;;;;;;;0.44;75.46;99381.69;120053;1149;24605;-62
2021/01/12 08:41:44;;;;;;;20.87;4.77;;;;;;;0.47;75.77;99381.61;120066;1148;22926;-62
2021/01/12 08:44:17;;;;;;;18.75;5.00;;;;;;;0.49;75.36;99381.95;120079;1148;27199;-62
2021/01/12 08:46:47;;;;;;;20.63;4.87;;;;;;;0.52;75.62;99381.07;120059;1148;22937;-62
2021/01/12 08:49:17;;;;;;;18.48;4.97;;;;;;;0.55;75.02;99388.46;119927;1148;23046;-61
2021/01/12 08:51:50;;;;;;;18.27;4.50;;;;;;;0.59;75.62;99382.86;119938;1148;22948;-62
2021/01/12 08:54:20;;;;;;;15.77;4.17;;;;;;;0.62;74.97;99379.27;120070;1148;22955;-63
2021/01/12 08:56:57;;;;;;;18.50;4.65;;;;;;;0.65;75.93;99373.67;119995;1148;22972;-62
2021/01/12 08:59:32;;;;;;;18.20;4.75;;;;;;;0.68;75.65;99370.05;119997;1148;23087;-62
2021/01/12 09:02:02;;;;;;;15.40;4.10;;;;;;;0.71;75.17;99360.95;119981;1148;24556;-63
2021/01/12 09:04:31;;;;;;;;;;;;;;;0.73;75.29;99360.50;119932;1148;27256;-62
2021/01/12 09:07:06;;;;;;;19.57;4.50;;;;;;;0.75;74.91;99363.59;119880;1150;23317;-62
2021/01/12 09:09:37;;;;;;;21.57;5.87;;;;;;;0.78;75.46;99354.49;120261;1148;25547;-61
2021/01/12 09:12:12;;;;;;;18.20;4.37;;;;;;;0.82;75.51;99357.91;119936;1148;23024;-62
2021/01/12 09:14:50;;;;;;;16.80;4.63;;;;;;;0.85;75.13;99357.03;120123;1148;22954;-63
2021/01/12 09:17:21;;;;;;;17.97;4.93;;;;;;;0.88;75.90;99350.67;119918;1148;26776;-62
2021/01/12 09:19:53;;;;;;;13.77;2.67;;;;;;;0.91;75.12;99351.79;119966;1148;26095;-62
2021/01/12 09:22:29;;;;;;;18.40;5.10;;;;;;;0.93;75.67;99344.66;119940;1148;23486;-60
2021/01/12 09:24:59;;;;;;;16.83;4.77;;;;;;;0.95;75.64;99335.97;119951;1148;22919;-62
2021/01/12 09:27:30;;;;;;;17.92;5.10;;;;;;;0.95;75.36;99331.25;120024;1148;22916;-62
2021/01/12 09:30:00;;;;;;;21.90;6.07;;;;;;;0.96;75.49;99324.53;120135;1148;22926;-61
2021/01/12 09:32:34;;;;;;;22.70;5.50;;;;;;;0.97;76.07;99326.09;119972;1148;27744;-63
2021/01/12 09:35:07;;;;;;;18.10;4.47;;;;;;;1.00;75.63;99330.70;120229;1148;22958;-61
2021/01/12 09:37:37;;;;;;;17.97;5.10;;;;;;;1.00;75.21;99319.70;120134;1148;24557;-62
2021/01/12 09:40:10;;;;;;;18.70;4.60;;;;;;;1.02;75.22;99311.02;120230;1148;22932;-63
2021/01/12 09:42:46;;;;;;;17.77;4.90;;;;;;;1.04;75.35;99314.09;120221;1148;22931;-62
2021/01/12 09:45:16;;;;;;;20.90;4.50;;;;;;;1.05;75.83;99307.41;120079;1148;22944;-62
2021/01/12 09:47:47;;;;;;;16.67;4.62;;;;;;;1.06;75.55;99303.44;119966;1148;23022;-64
2021/01/12 09:50:17;;;;;;;20.00;4.77;;;;;;;1.07;75.52;99303.02;120020;1148;23464;-62
2021/01/12 09:52:48;;;;;;;18.87;5.53;;;;;;;1.10;75.26;99284.86;120073;1148;22931;-61
2021/01/12 09:55:18;;;;;;;17.77;4.87;;;;;;;1.09;75.40;99286.86;119964;1148;22948;-62
2021/01/12 09:57:50;;;;;;;21.80;7.00;;;;;;;1.11;75.81;99281.70;119815;1148;22937;-63
2021/01/12 10:00:22;;;;;;;23.27;6.50;;;;;;;1.14;75.69;99280.05;120314;1149;22916;-62
2021/01/12 10:02:52;;;;;;;24.20;7.53;;;;;;;1.16;75.81;99278.38;119922;1150;23568;-62
2021/01/12 10:05:24;;;;;;;24.65;7.12;;;;;;;1.18;75.69;99272.47;120008;1149;25445;-63
2021/01/12 10:07:55;;;;;;;23.37;7.00;;;;;;;1.19;75.91;99263.77;120069;1151;22915;-62
2021/01/12 10:10:26;;;;;;;24.23;6.95;;;;;;;1.24;75.70;99256.97;119799;1150;22962;-62
2021/01/12 10:12:56;;;;;;;20.08;5.58;;;;;;;1.26;75.01;99257.30;120142;1148;22922;-62
2021/01/12 10:15:26;;;;;;;16.32;4.25;;;;;;;1.27;74.89;99245.84;119732;1149;23058;-61
2021/01/12 10:17:56;;;;;;;20.13;6.07;;;;;;;1.29;74.85;99250.90;119786;1148;22905;-62
2021/01/12 10:20:26;;;;;;;22.65;5.60;;;;;;;1.30;75.55;99247.73;119755;1148;26394;-61
2021/01/12 10:22:56;;;;;;;20.25;4.62;;;;;;;1.31;74.97;99248.48;120313;1149;22926;-62
2021/01/12 10:25:28;;;;;;;23.25;6.05;;;;;;;1.32;74.98;99247.28;120221;1150;22914;-63
2021/01/12 10:27:59;;;;;;;26.23;7.73;;;;;;;1.32;74.79;99247.28;120124;1150;22944;-62
2021/01/12 10:30:37;;;;;;;28.60;8.87;;;;;;;1.34;75.29;99233.86;120053;1148;22948;-62
2021/01/12 10:33:11;;;;;;;26.03;8.33;;;;;;;1.34;75.30;99229.14;120493;1148;22954;-61
2021/01/12 10:35:44;;;;;;;25.60;6.83;;;;;;;1.35;75.21;99221.64;120254;1148;22964;-67
2021/01/12 10:38:16;;;;;;;18.30;6.30;;;;;;;1.37;74.70;99219.99;120774;1148;22933;-60
2021/01/12 10:40:48;;;;;;;28.57;8.17;;;;;;;1.39;74.66;99220.32;119955;1148;22948;-60
2021/01/12 10:43:19;;;;;;;20.45;6.25;;;;;;;1.42;75.37;99215.92;120099;1149;22960;-60
2021/01/12 10:45:49;;;;;;;20.53;6.40;;;;;;;1.42;75.21;99224.95;121635;1148;25973;-61
2021/01/12 10:48:20;;;;;;;19.05;6.15;;;;;;;1.43;75.37;99207.22;119764;1148;26799;-61
2021/01/12 10:50:50;;;;;;;24.63;5.95;;;;;;;1.46;75.01;99209.10;119991;1148;22954;-61
2021/01/12 10:53:21;;;;;;;19.55;5.50;;;;;;;1.47;74.55;99201.59;119926;1148;22902;-60
2021/01/12 10:55:53;;;;;;;17.10;5.55;;;;;;;1.49;75.03;99196.45;120046;1148;23027;-61
2021/01/12 10:58:23;;;;;;;20.40;5.80;;;;;;;1.52;74.55;99195.55;120440;1148;23031;-62
2021/01/12 11:00:55;;;;;;;18.67;4.97;;;;;;;1.55;74.52;99186.42;120482;1148;23058;-61
2021/01/12 11:03:25;;;;;;;16.60;4.40;;;;;;;1.57;74.80;99182.00;119923;1148;24553;-61
2021/01/12 11:05:55;;;;;;;17.07;4.43;;;;;;;1.58;74.43;99183.55;119861;1148;23245;-63
2021/01/12 11:08:27;;;;;;;19.85;4.45;;;;;;;1.60;74.77;99177.59;119730;1148;22961;-61
2021/01/12 11:10:58;;;;;;;20.30;5.07;;;;;;;1.61;74.86;99176.40;119965;1148;26181;-61
2021/01/12 11:13:29;;;;;;;15.17;4.33;;;;;;;1.61;75.02;99176.40;120433;1148;23051;-61
2021/01/12 11:16:00;;;;;;;19.25;4.80;;;;;;;1.59;74.88;99167.82;119977;1148;24592;-62
2021/01/12 11:18:32;;;;;;;18.23;4.50;;;;;;;1.58;75.61;99166.27;120098;1148;23022;-62
2021/01/12 11:21:07;;;;;;;17.30;4.53;;;;;;;1.54;75.36;99160.12;120474;1148;22948;-61
2021/01/12 11:23:37;;;;;;;15.60;4.37;;;;;;;1.49;75.49;99163.45;119822;1148;27700;-61
2021/01/12 11:26:08;;;;;;;18.48;5.15;;;;;;;1.48;75.72;99164.64;119822;1148;25970;-61
2021/01/12 11:28:40;;;;;;;19.23;4.70;;;;;;;1.43;76.41;99138.47;119732;1148;22954;-61
2021/01/12 11:31:12;;;;;;;21.50;5.40;;;;;;;1.39;76.29;99146.08;119798;1148;23087;-62
2021/01/12 11:33:42;;;;;;;18.20;5.50;;;;;;;1.35;76.67;99142.67;119920;1148;23055;-61
2021/01/12 11:36:14;;;;;;;18.00;5.00;;;;;;;1.32;77.11;99138.08;119900;1148;22955;-61
2021/01/12 11:38:44;;;;;;;16.40;4.70;;;;;;;1.29;76.92;99130.70;119920;1148;22898;-61
2021/01/12 11:41:14;;;;;;;19.52;6.47;;;;;;;1.28;76.93;99131.90;119694;1148;22982;-62
2021/01/12 11:43:43;;;;;;;19.77;5.85;;;;;;;;;;119785;1148;25957;-61
2021/01/12 11:46:13;;;;;;;24.90;8.50;;;;;;;1.29;77.69;99125.20;119762;1148;25953;-62